Terminal Aerodrome Forecast
Issued by NWS

Home | Current Version | Previous Version | Graphics & Text | Print | Product List | Glossary On
Versions: 1 2 3 4 5 6 7 8 9 10 11 12 13 14
000
FTUS43 KGRB 042326
TAFMTW
TAF
KMTW 042326Z 0500/0524 10009KT P6SM SCT045 SCT250
     FM050200 17003KT P6SM SCT250
      TEMPO 0509/0513 3SM BR
     FM051400 20007KT P6SM SCT040
     FM051900 16010G18KT P6SM SKC=

USA.gov is the U.S. government's official web portal to all federal, state and local government web resources and services.